Time;durP1;ratioP1;P1;durP2;ratioP2;P2;SDS_P1;SDS_P2;PMS_P1;PMS_P2;Temp;Humidity;BMP_temperature;BMP_pressure;BME280_temperature;BME280_humidity;BME280_pressure;Samples;Min_cycle;Max_cycle;Signal;HPM_P1;HPM_P2
2023/07/03 00:00:25;;;;;;;29.17;13.38;;;;;;;9.75;100.00;92910.94;2506006;23;20006;-87
2023/07/03 00:01:34;;;;;;;31.30;13.65;;;;;;;9.75;100.00;92913.59;2497802;23;20011;-87
2023/07/03 00:02:52;;;;;;;27.40;13.45;;;;;;;9.59;100.00;92909.72;2510310;23;20018;-86
2023/07/03 00:04:00;;;;;;;31.77;13.93;;;;;;;9.79;100.00;92922.28;2525169;23;20180;-84
2023/07/03 00:05:06;;;;;;;28.38;14.00;;;;;;;9.80;100.00;92924.53;2513184;23;20262;-86
2023/07/03 00:06:09;;;;;;;26.83;13.10;;;;;;;9.66;100.00;92921.41;2499977;23;20011;-83
2023/07/03 00:07:14;;;;;;;31.17;13.77;;;;;;;9.64;100.00;92921.06;2499254;23;20011;-86
2023/07/03 00:08:18;;;;;;;25.67;12.93;;;;;;;9.67;100.00;92918.31;2498883;23;20474;-87
2023/07/03 00:09:23;;;;;;;32.58;14.25;;;;;;;9.71;100.00;92915.59;2513851;23;20065;-87
2023/07/03 00:10:25;;;;;;;33.63;14.75;;;;;;;9.57;100.00;92916.66;2523439;23;20018;-87
2023/07/03 00:11:26;;;;;;;33.22;13.80;;;;;;;9.51;100.00;92913.69;2498949;23;20027;-85
2023/07/03 00:12:28;;;;;;;33.97;14.30;;;;;;;9.61;100.00;92919.97;2486069;23;20391;-87
2023/07/03 00:13:30;;;;;;;30.77;13.95;;;;;;;9.61;100.00;92919.22;2521819;23;20026;-84
2023/07/03 00:14:34;;;;;;;30.25;13.60;;;;;;;9.61;100.00;92921.88;2520720;23;20006;-84
2023/07/03 00:15:39;;;;;;;29.13;13.35;;;;;;;9.61;100.00;92908.53;2509789;23;20110;-86
2023/07/03 00:16:40;;;;;;;36.20;13.68;;;;;;;9.55;100.00;92913.63;2509395;23;20370;-87
2023/07/03 00:17:47;;;;;;;30.83;13.75;;;;;;;9.54;100.00;92912.88;2509861;23;20030;-86
2023/07/03 00:19:00;;;;;;;28.20;13.73;;;;;;;9.57;100.00;92917.41;2511462;23;20053;-86
2023/07/03 00:20:02;;;;;;;;;;;;;;;9.55;100.00;92913.63;2510372;23;20561;-85
2023/07/03 00:21:10;;;;;;;30.58;13.95;;;;;;;9.52;100.00;92912.53;2508203;23;20371;-85
2023/07/03 00:22:21;;;;;;;32.63;13.80;;;;;;;9.56;100.00;92920.47;2509881;23;20070;-86
2023/07/03 00:23:26;;;;;;;32.65;13.45;;;;;;;9.62;100.00;92916.16;2508386;23;20349;-83
2023/07/03 00:24:35;;;;;;;33.33;13.63;;;;;;;9.51;100.00;92919.03;2521201;23;20364;-87
2023/07/03 00:25:40;;;;;;;23.63;12.90;;;;;;;9.54;100.00;92920.13;2519113;23;20449;-85
2023/07/03 00:26:47;;;;;;;33.45;13.95;;;;;;;9.44;100.00;92921.09;2497912;23;20011;-86
2023/07/03 00:27:54;;;;;;;33.88;14.15;;;;;;;9.45;100.00;92919.94;2498448;23;20020;-85
2023/07/03 00:28:56;;;;;;;28.27;13.43;;;;;;;9.49;100.00;92917.97;2509419;23;20044;-86
2023/07/03 00:29:57;;;;;;;32.45;13.45;;;;;;;9.49;100.00;92916.03;2508910;23;20009;-86
2023/07/03 00:30:59;;;;;;;28.00;12.68;;;;;;;9.45;100.00;92915.34;2496613;23;20019;-85
2023/07/03 00:32:09;;;;;;;31.48;13.35;;;;;;;9.43;100.00;92920.34;2508726;23;20111;-85
2023/07/03 00:33:12;;;;;;;33.38;13.80;;;;;;;9.35;100.00;92913.66;2519429;23;20078;-86
2023/07/03 00:34:16;;;;;;;28.65;13.07;;;;;;;9.39;100.00;92914.31;2509021;23;20003;-86
2023/07/03 00:35:17;;;;;;;31.40;13.27;;;;;;;9.48;100.00;92908.44;2508557;23;20019;-87
2023/07/03 00:36:23;;;;;;;34.75;13.32;;;;;;;9.46;100.00;92914.19;2520345;23;20014;-86
2023/07/03 00:37:28;;;;;;;31.17;13.80;;;;;;;9.42;100.00;92908.16;2520069;23;20488;-86
2023/07/03 00:38:37;;;;;;;27.65;13.05;;;;;;;9.40;100.00;92910.50;2509351;23;20065;-86
2023/07/03 00:39:41;;;;;;;30.30;13.40;;;;;;;9.24;100.00;92913.88;2487110;23;20497;-86
2023/07/03 00:40:43;;;;;;;24.65;12.23;;;;;;;9.33;100.00;92911.41;2497725;23;20011;-87
2023/07/03 00:41:47;;;;;;;31.45;13.32;;;;;;;9.20;100.00;92915.84;2497069;23;20018;-86
2023/07/03 00:42:50;;;;;;;30.98;13.88;;;;;;;9.27;100.00;92912.31;2497186;23;20015;-85
2023/07/03 00:43:55;;;;;;;29.80;12.82;;;;;;;9.31;100.00;92916.41;2509024;23;20003;-88
2023/07/03 00:45:01;;;;;;;30.33;13.30;;;;;;;9.24;100.00;92913.13;2485776;23;20391;-86
2023/07/03 00:46:12;;;;;;;30.15;13.13;;;;;;;9.21;100.00;92912.00;2502586;23;20087;-88
2023/07/03 00:47:16;;;;;;;33.08;14.50;;;;;;;9.26;100.00;92916.13;2508707;23;20006;-85
2023/07/03 00:48:18;;;;;;;29.80;12.88;;;;;;;9.21;100.00;92912.00;2497449;23;20043;-89
2023/07/03 00:49:29;;;;;;;33.38;13.82;;;;;;;9.14;100.00;92906.09;2496999;23;20394;-86
2023/07/03 00:50:32;;;;;;;32.00;13.63;;;;;;;9.13;100.00;92907.22;2522080;23;20685;-86
2023/07/03 00:51:40;;;;;;;27.10;13.30;;;;;;;9.24;100.00;92905.88;2519586;23;20061;-88
2023/07/03 00:53:00;;;;;;;33.40;14.30;;;;;;;9.21;100.00;92904.00;2521735;23;20077;-87
2023/07/03 00:54:16;;;;;;;34.08;13.93;;;;;;;9.25;100.00;92902.03;2505941;23;20025;-84
2023/07/03 00:55:24;;;;;;;27.25;12.85;;;;;;;9.30;100.00;92904.22;2489599;23;20008;-85
2023/07/03 00:57:05;;;;;;;30.50;13.52;;;;;;;9.24;100.00;92911.19;2505320;23;20015;-87
2023/07/03 00:58:12;;;;;;;32.47;12.82;;;;;;;9.26;100.00;92908.13;2505348;23;20041;-87
2023/07/03 00:59:15;;;;;;;31.90;13.25;;;;;;;9.26;100.00;92911.56;2499491;23;20018;-88
2023/07/03 01:00:22;;;;;;;33.10;13.23;;;;;;;9.19;100.00;92900.28;2498866;23;20035;-87
2023/07/03 01:01:51;;;;;;;25.33;12.27;;;;;;;9.19;100.00;92909.03;2501125;23;20048;-87
2023/07/03 01:03:24;;;;;;;31.63;13.32;;;;;;;9.26;100.00;92906.22;2508422;23;20007;-86
2023/07/03 01:04:55;;;;;;;30.08;13.80;;;;;;;9.37;100.00;92900.66;2509669;23;20006;-85
2023/07/03 01:06:03;;;;;;;32.47;13.13;;;;;;;9.37;100.00;92903.31;2519749;23;20057;-87
2023/07/03 01:07:23;;;;;;;24.02;12.35;;;;;;;9.39;100.00;92900.97;2502305;23;20031;-86
2023/07/03 01:08:35;;;;;;;30.73;12.27;;;;;;;9.31;100.00;92899.66;2509365;23;20007;-86
2023/07/03 01:11:29;;;;;;;28.98;12.88;;;;;;;9.28;100.00;92895.88;2513915;23;20424;-87
2023/07/03 01:12:42;;;;;;;29.80;13.85;;;;;;;9.27;100.00;92904.31;2513272;23;20018;-82
2023/07/03 01:13:52;;;;;;;36.15;13.80;;;;;;;9.29;100.00;92901.97;2513968;23;20007;-83
2023/07/03 01:17:35;;;;;;;28.23;12.57;;;;;;;9.26;100.00;92892.88;2513200;23;20358;-87
2023/07/03 01:18:47;;;;;;;29.85;13.30;;;;;;;9.22;100.00;92894.09;2512849;23;20007;-89
2023/07/03 01:19:53;;;;;;;31.20;12.50;;;;;;;9.27;100.00;92897.06;2502306;23;20009;-85
2023/07/03 01:21:21;;;;;;;29.70;13.07;;;;;;;9.31;100.00;92897.72;2513073;23;20014;-84
2023/07/03 01:22:28;;;;;;;34.67;13.10;;;;;;;9.25;100.00;92896.69;2498120;23;20063;-86
2023/07/03 01:23:57;;;;;;;31.08;13.30;;;;;;;9.23;100.00;92900.97;2498521;23;20003;-84
2023/07/03 01:25:08;;;;;;;32.13;13.27;;;;;;;9.25;100.00;92904.69;2510539;23;20026;-86
2023/07/03 01:26:23;;;;;;;26.65;12.38;;;;;;;9.33;100.00;92900.72;2512791;23;20568;-85
2023/07/03 01:27:36;;;;;;;32.17;12.70;;;;;;;9.30;100.00;92893.53;2526953;23;20077;-86
2023/07/03 01:28:45;;;;;;;32.85;12.77;;;;;;;9.16;100.00;92901.84;2521979;23;20010;-86
2023/07/03 01:29:57;;;;;;;34.50;12.77;;;;;;;9.16;100.00;92903.75;2490365;23;20043;-86
2023/07/03 01:31:11;;;;;;;30.77;13.07;;;;;;;9.16;100.00;92898.41;2492454;23;20086;-86
2023/07/03 01:32:19;;;;;;;36.53;12.60;;;;;;;9.14;100.00;92890.09;2489508;23;20096;-86
2023/07/03 01:33:40;;;;;;;30.55;13.07;;;;;;;9.25;100.00;92896.69;2515573;23;20013;-86
2023/07/03 01:34:58;;;;;;;31.02;12.70;;;;;;;9.25;100.00;92898.63;2506723;23;20065;-86
2023/07/03 01:36:12;;;;;;;31.83;13.85;;;;;;;9.23;100.00;92895.63;2493973;23;20018;-86
2023/07/03 01:38:01;;;;;;;29.88;12.82;;;;;;;9.16;100.00;92896.50;2501301;23;20096;-84
2023/07/03 01:39:12;;;;;;;31.05;12.63;;;;;;;9.28;100.00;92889.81;2496822;23;20450;-87
2023/07/03 01:40:36;;;;;;;35.20;13.82;;;;;;;9.14;100.00;92888.19;2503038;23;20075;-84
2023/07/03 01:41:45;;;;;;;32.15;13.10;;;;;;;9.18;100.00;92893.44;2509687;23;20011;-88
2023/07/03 01:42:57;;;;;;;30.98;14.15;;;;;;;9.06;100.00;92890.22;2509906;23;20003;-87
2023/07/03 01:44:01;;;;;;;31.45;13.43;;;;;;;9.10;100.00;92889.41;2508321;23;20042;-87
2023/07/03 01:45:48;;;;;;;36.63;12.73;;;;;;;9.05;100.00;92886.06;2500908;23;20006;-84
2023/07/03 01:46:56;;;;;;;31.40;12.27;;;;;;;9.13;100.00;92892.00;2505658;23;20315;-87
2023/07/03 01:48:09;;;;;;;33.88;14.15;;;;;;;9.20;100.00;92891.84;2508462;23;20418;-86
2023/07/03 01:49:21;;;;;;;31.27;12.63;;;;;;;9.19;100.00;92886.94;2499829;23;20023;-87
2023/07/03 01:50:35;;;;;;;34.45;13.65;;;;;;;9.12;100.00;92892.41;2489250;23;20067;-87
2023/07/03 01:52:46;;;;;;;34.13;13.90;;;;;;;9.18;100.00;92893.44;2492975;23;20015;-87
2023/07/03 01:54:13;;;;;;;34.55;13.02;;;;;;;9.27;100.00;92891.72;2509326;23;20101;-86
2023/07/03 01:55:31;;;;;;;31.08;13.57;;;;;;;9.27;100.00;92890.97;2494018;23;20528;-87
2023/07/03 01:56:51;;;;;;;31.13;13.02;;;;;;;9.24;100.00;92892.53;2494228;23;20011;-86
2023/07/03 01:58:16;;;;;;;37.15;12.75;;;;;;;9.17;100.00;92892.66;2504711;23;20456;-86
2023/07/03 02:00:08;;;;;;;38.30;14.40;;;;;;;9.21;100.00;92895.28;2514865;23;20030;-87
2023/07/03 02:02:30;;;;;;;35.78;13.38;;;;;;;9.22;100.00;92888.75;2514209;23;20825;-86
2023/07/03 02:06:27;;;;;;;29.92;12.93;;;;;;;9.23;100.00;92898.28;2514880;23;20007;-86
2023/07/03 02:07:44;;;;;;;29.42;12.23;;;;;;;9.31;100.00;92896.97;2522495;23;20017;-87
2023/07/03 02:10:02;;;;;;;37.92;14.30;;;;;;;9.31;100.00;92896.97;2514195;23;20074;-87
2023/07/03 02:11:52;;;;;;;30.13;12.45;;;;;;;9.33;100.00;92895.41;2510121;23;20003;-84
2023/07/03 02:13:17;;;;;;;33.88;12.80;;;;;;;9.31;100.00;92895.06;2498662;23;20105;-88
2023/07/03 02:15:48;;;;;;;34.03;13.32;;;;;;;9.34;100.00;92904.13;2440910;24;20452;-86
2023/07/03 02:17:53;;;;;;;32.88;13.52;;;;;;;9.41;100.00;92900.59;2429479;24;20038;-84
2023/07/03 02:19:31;;;;;;;37.17;13.55;;;;;;;9.48;100.00;92890.53;2441144;24;20009;-86
2023/07/03 04:16:22;;;;;;;39.10;15.18;;;;;;;10.75;100.00;92890.59;2571941;23;20027;-87
2023/07/03 04:17:25;;;;;;;34.13;14.70;;;;;;;10.76;100.00;92897.47;2542104;23;20021;-86
2023/07/03 04:18:28;;;;;;;44.15;15.77;;;;;;;10.79;100.00;92896.59;2516283;23;20371;-86
2023/07/03 04:19:35;;;;;;;39.92;14.27;;;;;;;10.83;100.00;92899.19;2519175;23;20002;-86
2023/07/03 04:20:37;;;;;;;35.83;15.43;;;;;;;10.86;100.00;92889.59;2521092;23;20098;-87
2023/07/03 04:21:40;;;;;;;40.10;14.75;;;;;;;10.93;100.00;92892.81;2519420;23;20014;-87
2023/07/03 04:22:52;;;;;;;44.95;15.43;;;;;;;10.89;100.00;92896.75;2531271;23;20017;-85
2023/07/03 04:23:57;;;;;;;34.63;15.02;;;;;;;10.90;100.00;92892.91;2522941;23;20006;-87
2023/07/03 04:25:03;;;;;;;42.65;14.88;;;;;;;10.96;100.00;92896.56;2519805;23;20006;-86
2023/07/03 04:26:05;;;;;;;45.42;14.98;;;;;;;10.91;100.00;92895.16;2531376;23;20089;-87
2023/07/03 04:27:08;;;;;;;37.55;15.00;;;;;;;10.96;100.00;92896.56;2531043;23;20005;-87
2023/07/03 04:28:16;;;;;;;43.92;15.48;;;;;;;11.01;100.00;92896.03;2520554;23;19998;-87
2023/07/03 04:29:22;;;;;;;40.13;15.93;;;;;;;11.03;100.00;92893.72;2534019;23;20612;-86
2023/07/03 04:30:24;;;;;;;37.65;14.38;;;;;;;11.03;100.00;92896.38;2542794;23;20005;-88
2023/07/03 04:31:27;;;;;;;43.63;15.23;;;;;;;11.02;100.00;92903.66;2518954;23;20002;-87
2023/07/03 04:32:31;;;;;;;35.20;15.55;;;;;;;11.03;100.00;92896.38;2531415;23;20009;-87
2023/07/03 04:33:33;;;;;;;39.97;15.23;;;;;;;10.99;100.00;92896.47;2532399;23;20438;-84
2023/07/03 04:34:36;;;;;;;39.30;15.05;;;;;;;11.01;100.00;92894.13;2544015;23;20773;-86
2023/07/03 04:35:38;;;;;;;33.42;14.02;;;;;;;10.98;100.00;92899.59;2543657;23;20092;-88
2023/07/03 04:36:47;;;;;;;43.08;14.15;;;;;;;11.03;100.00;92894.44;2519870;23;20011;-86
2023/07/03 04:37:55;;;;;;;37.28;14.73;;;;;;;11.10;100.00;92896.91;2522285;23;20498;-86
2023/07/03 04:39:00;;;;;;;38.22;15.10;;;;;;;11.03;100.00;92891.03;2533894;23;20005;-86
2023/07/03 04:40:08;;;;;;;43.28;15.20;;;;;;;11.12;100.00;92893.09;2532225;23;20102;-85
2023/07/03 04:41:18;;;;;;;33.28;14.73;;;;;;;11.07;100.00;92895.09;2533856;23;20082;-86
2023/07/03 04:42:32;;;;;;;34.72;14.93;;;;;;;11.10;100.00;92890.81;2545436;23;20009;-88
2023/07/03 04:43:46;;;;;;;36.05;14.40;;;;;;;11.20;100.00;92897.81;2545973;23;20017;-88
2023/07/03 04:44:52;;;;;;;37.45;14.32;;;;;;;11.34;100.00;92897.41;2542599;23;20002;-88
2023/07/03 04:46:03;;;;;;;39.42;14.68;;;;;;;11.25;100.00;92902.66;2521587;23;20692;-87
2023/07/03 04:47:08;;;;;;;32.15;13.77;;;;;;;11.20;100.00;92910.44;2547646;23;20001;-88
2023/07/03 04:48:16;;;;;;;42.97;14.55;;;;;;;11.29;100.00;92903.31;2543437;23;20017;-86
2023/07/03 04:49:26;;;;;;;35.83;14.13;;;;;;;11.35;100.00;92901.59;2532218;23;20002;-87
2023/07/03 04:50:31;;;;;;;34.78;14.35;;;;;;;11.33;100.00;92901.28;2545208;23;20032;-87
2023/07/03 04:51:39;;;;;;;37.25;15.25;;;;;;;11.36;100.00;92905.00;2544422;23;20043;-85
2023/07/03 04:52:41;;;;;;;36.65;13.82;;;;;;;11.36;100.00;92913.03;2532648;23;20002;-87
2023/07/03 04:53:44;;;;;;;36.00;13.73;;;;;;;11.38;100.00;92902.69;2530825;23;20006;-87
2023/07/03 04:54:45;;;;;;;35.13;14.05;;;;;;;11.35;100.00;92903.50;2531032;23;20009;-87
2023/07/03 04:55:47;;;;;;;36.33;14.40;;;;;;;11.28;100.00;92899.13;2542859;23;20133;-88
2023/07/03 04:56:48;;;;;;;39.80;14.05;;;;;;;11.30;100.00;92904.03;2531433;23;20085;-85
2023/07/03 04:57:49;;;;;;;40.25;14.18;;;;;;;11.33;100.00;92906.63;2531258;23;20009;-87
2023/07/03 04:58:51;;;;;;;36.72;13.88;;;;;;;11.37;100.00;92901.19;2531259;23;20009;-87
2023/07/03 04:59:54;;;;;;;33.70;14.65;;;;;;;11.37;100.00;92898.50;2543336;23;20001;-85
2023/07/03 05:00:56;;;;;;;40.70;13.88;;;;;;;11.46;100.00;92906.66;2519048;23;20010;-85
2023/07/03 05:01:57;;;;;;;35.58;13.88;;;;;;;11.39;100.00;92903.44;2519409;23;20082;-86
2023/07/03 05:03:00;;;;;;;31.77;14.18;;;;;;;11.51;100.00;92902.69;2519172;23;20002;-85
2023/07/03 05:04:01;;;;;;;41.83;13.52;;;;;;;11.60;100.00;92905.50;2519547;23;20006;-85
2023/07/03 05:05:02;;;;;;;38.53;14.95;;;;;;;11.56;100.00;92894.88;2531336;23;20028;-85
2023/07/03 05:06:04;;;;;;;35.92;13.93;;;;;;;11.66;100.00;92903.03;2531568;23;20152;-85
2023/07/03 05:07:05;;;;;;;33.97;13.20;;;;;;;11.69;100.00;92904.84;2543220;23;20039;-84
2023/07/03 05:08:09;;;;;;;36.22;14.02;;;;;;;11.56;100.00;92897.56;2531138;23;20041;-85
2023/07/03 05:09:13;;;;;;;34.03;14.32;;;;;;;11.58;100.00;92902.47;2531693;23;20520;-85
2023/07/03 05:10:16;;;;;;;38.33;14.13;;;;;;;11.72;100.00;92901.31;2532083;23;20089;-86
2023/07/03 05:11:17;;;;;;;33.20;13.55;;;;;;;11.76;100.00;92907.31;2531441;23;20520;-85
2023/07/03 05:12:18;;;;;;;34.05;13.90;;;;;;;11.82;100.00;92902.94;2531173;23;20052;-87
2023/07/03 05:13:19;;;;;;;34.22;14.02;;;;;;;11.84;100.00;92906.69;2542927;23;20005;-85
2023/07/03 05:14:20;;;;;;;34.85;13.35;;;;;;;11.87;100.00;92907.78;2531352;23;20009;-86
2023/07/03 05:15:24;;;;;;;42.28;13.57;;;;;;;11.91;100.00;92903.06;2530832;23;20064;-85
2023/07/03 05:16:25;;;;;;;31.20;12.57;;;;;;;11.94;100.00;92912.94;2544953;23;20005;-85
2023/07/03 05:17:26;;;;;;;37.58;14.10;;;;;;;12.02;100.00;92906.16;2532312;23;20005;-86
2023/07/03 05:18:29;;;;;;;38.92;14.85;;;;;;;12.04;100.00;92911.84;2532123;23;20008;-87
2023/07/03 05:19:30;;;;;;;38.47;14.38;;;;;;;11.96;100.00;92913.25;2533284;23;20006;-84
2023/07/03 05:20:31;;;;;;;34.63;14.30;;;;;;;11.90;100.00;92909.63;2519682;23;20010;-84
2023/07/03 05:21:32;;;;;;;36.92;14.38;;;;;;;12.06;100.00;92912.16;2532031;23;20010;-86
2023/07/03 05:22:33;;;;;;;37.72;14.00;;;;;;;11.99;100.00;92917.00;2519865;23;20037;-84
2023/07/03 05:23:35;;;;;;;34.30;13.27;;;;;;;12.06;100.00;92911.41;2531875;23;20371;-86
2023/07/03 05:24:36;;;;;;;39.88;14.77;;;;;;;11.95;100.00;92914.44;2532238;23;20511;-86
2023/07/03 05:25:38;;;;;;;36.83;13.93;;;;;;;11.91;100.00;92919.13;2531797;23;20109;-86
2023/07/03 05:26:39;;;;;;;40.70;15.15;;;;;;;11.92;100.00;92920.63;2544055;23;20010;-84
2023/07/03 05:27:41;;;;;;;35.15;13.93;;;;;;;12.04;100.00;92911.84;2531509;23;20001;-84
2023/07/03 05:28:42;;;;;;;40.42;14.15;;;;;;;12.12;100.00;92919.69;2519246;23;20014;-85
2023/07/03 05:29:43;;;;;;;37.13;14.35;;;;;;;12.05;100.00;92923.31;2532060;23;20006;-85
2023/07/03 05:30:44;;;;;;;46.50;15.60;;;;;;;12.29;100.00;92915.66;2531864;23;20012;-85
2023/07/03 05:31:45;;;;;;;38.95;14.48;;;;;;;12.17;100.00;92914.53;2532019;23;20347;-87
2023/07/03 05:32:46;;;;;;;39.00;14.52;;;;;;;12.18;100.00;92912.59;2544210;23;20456;-87
2023/07/03 05:33:47;;;;;;;39.53;15.57;;;;;;;12.18;100.00;92917.94;2543749;23;20009;-85
2023/07/03 05:34:48;;;;;;;37.60;15.10;;;;;;;12.15;100.00;92908.09;2544195;23;20001;-84
2023/07/03 05:35:49;;;;;;;34.72;14.90;;;;;;;12.09;100.00;92908.63;2543616;23;20318;-84
2023/07/03 05:36:50;;;;;;;41.35;15.93;;;;;;;12.14;100.00;92920.75;2544065;23;20013;-85
2023/07/03 05:37:51;;;;;;;36.95;14.93;;;;;;;12.12;100.00;92917.00;2544059;23;20002;-84
2023/07/03 05:38:52;;;;;;;36.17;14.18;;;;;;;12.11;100.00;92918.91;2543971;23;20005;-85
2023/07/03 05:39:53;;;;;;;38.60;14.38;;;;;;;12.18;100.00;92918.69;2519694;23;20010;-85
2023/07/03 05:40:55;;;;;;;43.10;14.98;;;;;;;12.17;100.00;92913.78;2532054;23;20597;-83
2023/07/03 05:41:57;;;;;;;39.80;15.90;;;;;;;12.23;100.00;92912.78;2532475;23;20433;-85
2023/07/03 05:42:58;;;;;;;32.85;14.02;;;;;;;12.28;100.00;92912.25;2532020;23;20085;-85
2023/07/03 05:43:59;;;;;;;35.13;14.52;;;;;;;12.35;100.00;92911.28;2531870;23;20006;-85
2023/07/03 05:45:00;;;;;;;40.47;14.40;;;;;;;12.37;100.00;92925.00;2544000;23;20024;-85
2023/07/03 05:46:01;;;;;;;42.28;14.25;;;;;;;12.57;100.00;92909.41;2539097;23;20020;-84
2023/07/03 05:47:02;;;;;;;36.72;15.10;;;;;;;12.53;100.00;92916.81;2527707;23;20513;-86
2023/07/03 05:48:03;;;;;;;32.67;14.18;;;;;;;12.59;100.00;92920.44;2540429;23;20006;-85
2023/07/03 05:49:04;;;;;;;48.22;15.73;;;;;;;12.72;100.00;92922.34;2541288;23;20006;-89
2023/07/03 05:50:06;;;;;;;37.45;15.27;;;;;;;12.66;100.00;92919.47;2529651;23;20013;-86
2023/07/03 05:51:07;;;;;;;42.30;15.65;;;;;;;12.58;100.00;92921.63;2539297;23;20235;-88
2023/07/03 05:52:10;;;;;;;41.90;15.27;;;;;;;12.68;100.00;92919.03;2528931;23;20001;-87
2023/07/03 05:53:11;;;;;;;41.08;15.35;;;;;;;12.67;100.00;92925.59;2518955;23;20652;-85
2023/07/03 05:54:12;;;;;;;40.90;14.52;;;;;;;12.66;100.00;92924.09;2518426;23;20010;-85
2023/07/03 05:55:13;;;;;;;38.25;15.18;;;;;;;12.70;100.00;92924.72;2530029;23;20084;-84
2023/07/03 05:56:14;;;;;;;41.80;15.40;;;;;;;12.80;100.00;92923.63;2530236;23;20025;-85
2023/07/03 05:57:16;;;;;;;40.50;15.10;;;;;;;12.86;100.00;92919.19;2530119;23;20346;-84
2023/07/03 05:58:17;;;;;;;40.45;14.88;;;;;;;12.72;100.00;92922.34;2518557;23;20017;-85
2023/07/03 05:59:18;;;;;;;42.25;15.32;;;;;;;12.79;100.00;92930.91;2542986;23;20005;-85
2023/07/03 06:00:19;;;;;;;51.67;15.55;;;;;;;12.85;100.00;92926.47;2555302;23;20011;-86
2023/07/03 06:01:20;;;;;;;46.00;15.75;;;;;;;12.89;100.00;92928.31;2530144;23;20555;-83
2023/07/03 06:02:21;;;;;;;39.97;14.52;;;;;;;12.95;100.00;92930.00;2530510;23;20109;-84
2023/07/03 06:03:24;;;;;;;43.67;15.68;;;;;;;12.99;100.00;92925.25;2530256;23;20057;-85
2023/07/03 06:04:30;;;;;;;40.38;15.65;;;;;;;12.96;100.00;92928.09;2531006;23;20147;-87
2023/07/03 06:05:54;;;;;;;41.53;16.70;;;;;;;12.97;100.00;92929.56;2531125;23;20097;-85
2023/07/03 06:06:56;;;;;;;43.13;15.32;;;;;;;13.01;100.00;92936.31;2535992;23;20018;-86
2023/07/03 06:07:57;;;;;;;44.92;15.75;;;;;;;13.09;100.00;92932.22;2531379;23;20072;-85
2023/07/03 06:08:58;;;;;;;41.15;15.13;;;;;;;13.11;100.00;92934.44;2519404;23;20489;-86
2023/07/03 06:09:59;;;;;;;40.65;15.80;;;;;;;13.16;100.00;92936.56;2542432;23;20299;-85
2023/07/03 06:11:00;;;;;;;36.50;15.25;;;;;;;13.24;100.00;92932.47;2531144;23;20334;-84
2023/07/03 06:12:02;;;;;;;40.38;14.35;;;;;;;13.24;100.00;92937.84;2531510;23;20446;-84
2023/07/03 06:13:04;;;;;;;37.45;14.13;;;;;;;13.29;100.00;92934.59;2531616;23;20124;-85
2023/07/03 06:14:15;;;;;;;37.33;15.30;;;;;;;13.51;100.00;92937.28;2543187;23;20056;-87
2023/07/03 06:15:16;;;;;;;38.45;14.80;;;;;;;13.41;100.00;92938.41;2535486;23;20005;-86
2023/07/03 06:16:17;;;;;;;36.63;14.65;;;;;;;13.62;100.00;92939.59;2531124;23;20020;-85
2023/07/03 06:17:18;;;;;;;43.25;14.90;;;;;;;13.60;100.00;92939.28;2531237;23;20457;-86
2023/07/03 06:18:19;;;;;;;43.25;14.70;;;;;;;13.64;100.00;92939.16;2531386;23;20608;-86
2023/07/03 06:19:20;;;;;;;44.60;17.02;;;;;;;13.69;100.00;92941.25;2531399;23;20393;-85
2023/07/03 06:20:22;;;;;;;37.25;13.45;;;;;;;13.72;100.00;92943.81;2531379;23;20030;-88
2023/07/03 06:21:23;;;;;;;45.53;14.57;;;;;;;13.84;100.00;92943.00;2530849;23;20013;-87
2023/07/03 06:22:24;;;;;;;47.42;15.05;;;;;;;13.85;100.00;92935.69;2531303;23;20013;-84
2023/07/03 06:23:25;;;;;;;37.88;13.98;;;;;;;14.01;100.00;92940.09;2543592;23;20062;-84
2023/07/03 06:24:26;;;;;;;37.28;14.55;;;;;;;14.25;100.00;92941.06;2543718;23;20096;-85
2023/07/03 06:25:27;;;;;;;36.17;14.70;;;;;;;14.16;100.00;92951.06;2531390;23;20473;-84
2023/07/03 06:26:33;;;;;;;46.05;14.30;;;;;;;14.18;100.00;92943.28;2531326;23;20527;-85
2023/07/03 06:27:35;;;;;;;41.40;14.63;;;;;;;14.32;100.00;92946.19;2532545;23;20014;-85
2023/07/03 06:28:36;;;;;;;37.17;14.57;;;;;;;14.32;100.00;92946.19;2519461;23;20010;-87
2023/07/03 06:29:37;;;;;;;34.67;14.13;;;;;;;14.37;100.00;92942.16;2518815;23;20596;-86
2023/07/03 06:30:38;;;;;;;43.92;15.15;;;;;;;14.51;100.00;92943.56;2519337;23;20358;-87
2023/07/03 06:31:40;;;;;;;38.60;14.18;;;;;;;14.58;100.00;92940.63;2531473;23;19998;-85
2023/07/03 06:32:41;;;;;;;40.47;14.02;;;;;;;14.81;100.00;92942.00;2532066;23;19998;-86
2023/07/03 06:33:43;;;;;;;34.70;13.65;;;;;;;14.85;100.00;92946.03;2543111;23;20070;-87
2023/07/03 06:34:44;;;;;;;33.70;13.80;;;;;;;14.80;100.00;92943.19;2543400;23;20009;-87
2023/07/03 06:35:47;;;;;;;39.22;13.77;;;;;;;14.89;100.00;92942.47;2531109;23;20013;-86
2023/07/03 06:36:48;;;;;;;38.90;14.45;;;;;;;14.87;100.00;92937.50;2531996;23;20002;-85
2023/07/03 06:37:52;;;;;;;33.33;13.05;;;;;;;14.80;100.00;92941.25;2531141;23;20021;-87
2023/07/03 06:38:55;;;;;;;36.42;14.40;;;;;;;14.84;100.00;92939.16;2520484;23;20064;-87
2023/07/03 06:39:56;;;;;;;33.40;12.95;;;;;;;14.79;100.00;92945.13;2531467;23;20045;-87
2023/07/03 06:40:58;;;;;;;34.10;13.43;;;;;;;14.93;100.00;92941.13;2555544;23;20434;-84
2023/07/03 06:41:59;;;;;;;32.72;13.90;;;;;;;14.98;100.00;92937.09;2543349;23;20021;-86
2023/07/03 06:43:00;;;;;;;32.83;12.55;;;;;;;15.10;100.00;92944.25;2543539;23;20085;-88
2023/07/03 06:44:04;;;;;;;31.98;13.18;;;;;;;15.04;100.00;92944.09;2519439;23;20074;-85
2023/07/03 06:45:06;;;;;;;34.15;13.48;;;;;;;15.23;100.00;92934.09;2531754;23;20046;-84
2023/07/03 06:46:07;;;;;;;30.63;12.18;;;;;;;15.29;100.00;92932.28;2518956;23;20014;-88
2023/07/03 06:47:08;;;;;;;25.65;12.15;;;;;;;15.38;100.00;92936.94;2519083;23;20097;-86
2023/07/03 06:48:09;;;;;;;33.58;12.10;;;;;;;15.30;100.00;92933.78;2531023;23;20033;-87
2023/07/03 06:49:10;;;;;;;29.30;11.93;;;;;;;15.40;100.00;92936.47;2519293;23;20010;-84
2023/07/03 06:50:11;;;;;;;29.88;11.70;;;;;;;15.50;100.00;92937.97;2530916;23;20002;-86
2023/07/03 06:51:13;;;;;;;29.33;11.43;;;;;;;15.48;100.00;92926.88;2543469;23;20687;-85
2023/07/03 06:52:14;;;;;;;34.30;12.55;;;;;;;15.51;100.00;92928.69;2543486;23;20017;-85
2023/07/03 06:53:15;;;;;;;24.63;11.15;;;;;;;15.65;100.00;92932.72;2519493;23;20014;-85
2023/07/03 06:54:16;;;;;;;28.42;10.85;;;;;;;15.76;100.00;92930.28;2519211;23;20037;-86
2023/07/03 06:55:17;;;;;;;26.40;10.90;;;;;;;15.83;100.00;92940.75;2530953;23;20006;-86
2023/07/03 06:56:20;;;;;;;25.52;9.32;;;;;;;16.06;100.00;92936.66;2519281;23;20094;-87
2023/07/03 06:57:21;;;;;;;23.17;9.38;;;;;;;16.30;100.00;92939.41;2519516;23;20333;-85
2023/07/03 06:58:22;;;;;;;27.55;9.10;;;;;;;16.21;100.00;92934.81;2531292;23;20005;-86
2023/07/03 06:59:23;;;;;;;22.42;9.40;;;;;;;16.08;100.00;92931.56;2518913;23;20033;-87
2023/07/03 07:00:24;;;;;;;31.50;9.73;;;;;;;15.99;100.00;92931.59;2519072;23;20010;-85
2023/07/03 07:01:28;;;;;;;29.45;8.82;;;;;;;15.94;100.00;92934.91;2531094;23;20076;-87
2023/07/03 07:02:29;;;;;;;22.35;8.90;;;;;;;15.81;100.00;92933.13;2531920;23;20018;-85
2023/07/03 07:03:30;;;;;;;24.70;8.95;;;;;;;16.13;100.00;92930.19;2519036;23;20002;-87
2023/07/03 07:04:32;;;;;;;23.33;9.10;;;;;;;15.86;100.00;92929.81;2531378;23;20030;-84
2023/07/03 07:05:34;;;;;;;26.58;9.32;;;;;;;15.83;100.00;92933.41;2542959;23;20005;-84
2023/07/03 07:06:38;;;;;;;28.35;9.75;;;;;;;15.86;100.00;92929.09;2519548;23;20017;-85
2023/07/03 07:07:39;;;;;;;21.95;8.88;;;;;;;15.87;100.00;92935.97;2531705;23;20006;-85
2023/07/03 07:08:41;;;;;;;27.42;9.25;;;;;;;15.94;100.00;92930.25;2532055;23;20014;-84
2023/07/03 07:09:43;;;;;;;25.95;9.43;;;;;;;16.23;100.00;92937.03;2544387;23;20028;-86
2023/07/03 07:10:44;;;;;;;22.35;8.80;;;;;;;16.35;100.00;92936.84;2531913;23;20041;-85